Etusivu
METAR-TAF:

METAR-TAF

Lentoasemat :

Norrköping, Ruotsi

Leveyspiiri: 58-35N, Pituuspiiri: 016-09E, korkeus merenpinnasta: 34 m

Tämänhetkinen sää

Tämä raportti tehtiin 34 minuuttia sitten, kello 17.20 UTC
Tuuli 11 kn koillisesta
Lämpötila -2°C
Kosteus 86%
Ilmanpaine 1026 hPa
Näkyvyys 10 km tai enemmän
Hajonneita pilviä 1200 ft:n korkeudessa
heikkoa lumisadetta

METAR: ESSP 191720Z 05011KT 9999 -SN BKN012 M02/M04 Q1026 R27/09//95

Aika: 18:54 (17:54 UTC)

Sääennuste

Tämä raportti tehtiin 24 minuuttia sitten, kello 17.30 UTC
Ennuste voimassa 19. päivästä klo 18 UTC - 19. päivään klo 23 UTC
Tuuli 10 kn idästä/koillisesta
Näkyvyys 10 km tai enemmän
Hajanaisia pilviä 1000 ft:n korkeudessa
Hajonneita pilviä 2000 ft:n korkeudessa
Ajoittain
19. päivästä klo 18 UTC - 19. päivään klo 23 UTC
Näkyvyys: 4000 m
Hajonneita pilviä 1000 ft:n korkeudessa
heikkoa lumisadetta

TAF: ESSP 191730Z 1918/1923 06010KT 9999 SCT010 BKN020 TEMPO 1918/1923 4000 -SN BKN010

Säähavainnot ja -ennusteet yli 4000 lentoasemalta (METAR- ja TAF-raportit).

Käytössä olevat sääasemat on merkitty karttaan keltaisilla ja punaisilla pisteillä.

Aseta hiiri pisteen päälle nähdäksesi sääaseman nimen.

Klikkaa sitten nähdäksesi säähavainnot ja -ennusteet.

Kartan vaihtaminen: klikkaa mustalla rastilla varustettuja vihreitä pisteitä, niin voit zoomata sisään; viivalla varustettua vihreää pistettä, niin voit zoomata ulos tai vihreitä nuolia, niin pääset viereisille kartoille.


METAR-TAF: